<?xml version="1.0" encoding="UTF-8" standalone="no" ?>
<gpx xmlns="http://www.topografix.com/GPX/1/1" xmlns:xsi="http://www.w3.org/2001/XMLSchema-instance" xsi:schemaLocation="http://www.topografix.com/GPX/1/1 http://www.topografix.com/GPX/1/1/gpx.xsd" version="1.1" creator="VisuGPX - https://www.visugpx.com">
  <metadata>
    <name>Refuge Elisa - Champex</name>
    <desc><![CDATA[Étape 7. La fouly champex lac]]></desc>
  </metadata>
  <wpt lat="45.89201" lon="7.09256">
    <ele>2373</ele>
    <name><![CDATA[Prés d’alpage de la Chaudière]]></name>
  </wpt>
  <wpt lat="45.89692" lon="7.11228">
    <ele>2068</ele>
    <name><![CDATA[Chalet de >]]></name>
  </wpt>
  <wpt lat="45.90492" lon="7.11564">
    <ele>1790</ele>
    <name><![CDATA[Pont sur la Drance]]></name>
  </wpt>
  <wpt lat="45.91554" lon="7.10505">
    <ele>1706</ele>
    <name><![CDATA[Ferret]]></name>
  </wpt>
  <wpt lat="45.92608" lon="7.09715">
    <ele>1625</ele>
    <name><![CDATA[Le Clou]]></name>
  </wpt>
  <wpt lat="46.00259" lon="7.12607">
    <ele>1056</ele>
    <name><![CDATA[Issert]]></name>
  </wpt>
  <wpt lat="46.01842" lon="7.12026">
    <ele>1324</ele>
    <name><![CDATA[Chalets de l'Affe]]></name>
  </wpt>
  <wpt lat="46.03076" lon="7.11504">
    <ele>1471</ele>
    <name><![CDATA[Champex]]></name>
  </wpt>
  <trk>
    <name><![CDATA[Refuge Elisa - Champex]]></name>
    <trkseg>
      <trkpt lat="45.88436" lon="7.06621">
        <ele>2060</ele>
        <time>2021-05-11T14:47:12+02:00</time>
      </trkpt>
      <trkpt lat="45.88523" lon="7.06629">
        <ele>2058</ele>
        <time>2021-05-11T14:47:17+02:00</time>
      </trkpt>
      <trkpt lat="45.88497" lon="7.06728">
        <ele>2078</ele>
        <time>2021-05-11T14:47:22+02:00</time>
      </trkpt>
      <trkpt lat="45.88412" lon="7.06809">
        <ele>2105</ele>
        <time>2021-05-11T14:47:27+02:00</time>
      </trkpt>
      <trkpt lat="45.88317" lon="7.06818">
        <ele>2125</ele>
        <time>2021-05-11T14:47:32+02:00</time>
      </trkpt>
      <trkpt lat="45.88357" lon="7.06947">
        <ele>2180</ele>
        <time>2021-05-11T14:47:37+02:00</time>
      </trkpt>
      <trkpt lat="45.88311" lon="7.07071">
        <ele>2204</ele>
        <time>2021-05-11T14:47:42+02:00</time>
      </trkpt>
      <trkpt lat="45.88338" lon="7.07221">
        <ele>2260</ele>
        <time>2021-05-11T14:47:47+02:00</time>
      </trkpt>
      <trkpt lat="45.88266" lon="7.07342">
        <ele>2269</ele>
        <time>2021-05-11T14:47:52+02:00</time>
      </trkpt>
      <trkpt lat="45.88239" lon="7.07475">
        <ele>2291</ele>
        <time>2021-05-11T14:47:57+02:00</time>
      </trkpt>
      <trkpt lat="45.88209" lon="7.07578">
        <ele>2292</ele>
        <time>2021-05-11T14:48:02+02:00</time>
      </trkpt>
      <trkpt lat="45.8829" lon="7.07578">
        <ele>2343</ele>
        <time>2021-05-11T14:48:07+02:00</time>
      </trkpt>
      <trkpt lat="45.88346" lon="7.07621">
        <ele>2380</ele>
        <time>2021-05-11T14:48:12+02:00</time>
      </trkpt>
      <trkpt lat="45.88397" lon="7.07595">
        <ele>2407</ele>
        <time>2021-05-11T14:48:17+02:00</time>
      </trkpt>
      <trkpt lat="45.88535" lon="7.07526">
        <ele>2438</ele>
        <time>2021-05-11T14:48:22+02:00</time>
      </trkpt>
      <trkpt lat="45.88633" lon="7.07724">
        <ele>2501</ele>
        <time>2021-05-11T14:48:27+02:00</time>
      </trkpt>
      <trkpt lat="45.88875" lon="7.07797">
        <ele>2534</ele>
        <time>2021-05-11T14:48:32+02:00</time>
      </trkpt>
      <trkpt lat="45.89105" lon="7.07848">
        <ele>2510</ele>
        <time>2021-05-11T14:48:37+02:00</time>
      </trkpt>
      <trkpt lat="45.8918" lon="7.0811">
        <ele>2487</ele>
        <time>2021-05-11T14:48:42+02:00</time>
      </trkpt>
      <trkpt lat="45.89213" lon="7.08346">
        <ele>2467</ele>
        <time>2021-05-11T14:48:47+02:00</time>
      </trkpt>
      <trkpt lat="45.89129" lon="7.08539">
        <ele>2426</ele>
        <time>2021-05-11T14:48:52+02:00</time>
      </trkpt>
      <trkpt lat="45.89192" lon="7.08745">
        <ele>2416</ele>
        <time>2021-05-11T14:48:57+02:00</time>
      </trkpt>
      <trkpt lat="45.89201" lon="7.09256">
        <ele>2373</ele>
        <time>2021-05-11T14:49:02+02:00</time>
      </trkpt>
      <trkpt lat="45.89222" lon="7.09429">
        <ele>2342</ele>
        <time>2021-05-11T14:49:07+02:00</time>
      </trkpt>
      <trkpt lat="45.89326" lon="7.09758">
        <ele>2294</ele>
        <time>2021-05-11T14:49:12+02:00</time>
      </trkpt>
      <trkpt lat="45.89416" lon="7.09987">
        <ele>2282</ele>
        <time>2021-05-11T14:49:17+02:00</time>
      </trkpt>
      <trkpt lat="45.8947" lon="7.10098">
        <ele>2269</ele>
        <time>2021-05-11T14:49:22+02:00</time>
      </trkpt>
      <trkpt lat="45.89499" lon="7.10208">
        <ele>2254</ele>
        <time>2021-05-11T14:49:27+02:00</time>
      </trkpt>
      <trkpt lat="45.89607" lon="7.10715">
        <ele>2195</ele>
        <time>2021-05-11T14:49:32+02:00</time>
      </trkpt>
      <trkpt lat="45.89764" lon="7.10972">
        <ele>2173</ele>
        <time>2021-05-11T14:49:37+02:00</time>
      </trkpt>
      <trkpt lat="45.89932" lon="7.11247">
        <ele>2085</ele>
        <time>2021-05-11T14:49:42+02:00</time>
      </trkpt>
      <trkpt lat="45.89819" lon="7.1126">
        <ele>2073</ele>
        <time>2021-05-11T14:49:47+02:00</time>
      </trkpt>
      <trkpt lat="45.89692" lon="7.11228">
        <ele>2068</ele>
        <time>2021-05-11T14:49:52+02:00</time>
      </trkpt>
      <trkpt lat="45.89748" lon="7.11422">
        <ele>2046</ele>
        <time>2021-05-11T14:49:57+02:00</time>
      </trkpt>
      <trkpt lat="45.8987" lon="7.11513">
        <ele>2038</ele>
        <time>2021-05-11T14:50:02+02:00</time>
      </trkpt>
      <trkpt lat="45.89729" lon="7.11492">
        <ele>2025</ele>
        <time>2021-05-11T14:50:07+02:00</time>
      </trkpt>
      <trkpt lat="45.89862" lon="7.11627">
        <ele>1999</ele>
        <time>2021-05-11T14:50:12+02:00</time>
      </trkpt>
      <trkpt lat="45.90013" lon="7.11745">
        <ele>1952</ele>
        <time>2021-05-11T14:50:17+02:00</time>
      </trkpt>
      <trkpt lat="45.90189" lon="7.11612">
        <ele>1941</ele>
        <time>2021-05-11T14:50:22+02:00</time>
      </trkpt>
      <trkpt lat="45.90197" lon="7.11665">
        <ele>1921</ele>
        <time>2021-05-11T14:50:27+02:00</time>
      </trkpt>
      <trkpt lat="45.90295" lon="7.11602">
        <ele>1887</ele>
        <time>2021-05-11T14:50:32+02:00</time>
      </trkpt>
      <trkpt lat="45.90542" lon="7.11419">
        <ele>1808</ele>
        <time>2021-05-11T14:50:37+02:00</time>
      </trkpt>
      <trkpt lat="45.90492" lon="7.11564">
        <ele>1790</ele>
        <time>2021-05-11T14:50:42+02:00</time>
      </trkpt>
      <trkpt lat="45.90507" lon="7.11612">
        <ele>1782</ele>
        <time>2021-05-11T14:50:47+02:00</time>
      </trkpt>
      <trkpt lat="45.90655" lon="7.11496">
        <ele>1782</ele>
        <time>2021-05-11T14:50:52+02:00</time>
      </trkpt>
      <trkpt lat="45.90767" lon="7.11367">
        <ele>1782</ele>
        <time>2021-05-11T14:50:57+02:00</time>
      </trkpt>
      <trkpt lat="45.90835" lon="7.11178">
        <ele>1772</ele>
        <time>2021-05-11T14:51:02+02:00</time>
      </trkpt>
      <trkpt lat="45.90941" lon="7.11032">
        <ele>1766</ele>
        <time>2021-05-11T14:51:07+02:00</time>
      </trkpt>
      <trkpt lat="45.91064" lon="7.10929">
        <ele>1756</ele>
        <time>2021-05-11T14:51:12+02:00</time>
      </trkpt>
      <trkpt lat="45.91131" lon="7.10795">
        <ele>1745</ele>
        <time>2021-05-11T14:51:17+02:00</time>
      </trkpt>
      <trkpt lat="45.91294" lon="7.10657">
        <ele>1728</ele>
        <time>2021-05-11T14:51:22+02:00</time>
      </trkpt>
      <trkpt lat="45.91554" lon="7.10505">
        <ele>1706</ele>
        <time>2021-05-11T14:51:27+02:00</time>
      </trkpt>
      <trkpt lat="45.91533" lon="7.1041">
        <ele>1702</ele>
        <time>2021-05-11T14:51:32+02:00</time>
      </trkpt>
      <trkpt lat="45.91779" lon="7.10168">
        <ele>1674</ele>
        <time>2021-05-11T14:51:37+02:00</time>
      </trkpt>
      <trkpt lat="45.91846" lon="7.10128">
        <ele>1671</ele>
        <time>2021-05-11T14:51:42+02:00</time>
      </trkpt>
      <trkpt lat="45.91918" lon="7.10155">
        <ele>1660</ele>
        <time>2021-05-11T14:51:47+02:00</time>
      </trkpt>
      <trkpt lat="45.9199" lon="7.09995">
        <ele>1671</ele>
        <time>2021-05-11T14:51:52+02:00</time>
      </trkpt>
      <trkpt lat="45.92115" lon="7.09887">
        <ele>1679</ele>
        <time>2021-05-11T14:51:57+02:00</time>
      </trkpt>
      <trkpt lat="45.92226" lon="7.09708">
        <ele>1679</ele>
        <time>2021-05-11T14:52:02+02:00</time>
      </trkpt>
      <trkpt lat="45.92239" lon="7.0963">
        <ele>1692</ele>
        <time>2021-05-11T14:52:07+02:00</time>
      </trkpt>
      <trkpt lat="45.92402" lon="7.0962">
        <ele>1659</ele>
        <time>2021-05-11T14:52:12+02:00</time>
      </trkpt>
      <trkpt lat="45.92462" lon="7.09657">
        <ele>1637</ele>
        <time>2021-05-11T14:52:17+02:00</time>
      </trkpt>
      <trkpt lat="45.92545" lon="7.09668">
        <ele>1622</ele>
        <time>2021-05-11T14:52:22+02:00</time>
      </trkpt>
      <trkpt lat="45.92608" lon="7.09715">
        <ele>1625</ele>
        <time>2021-05-11T14:52:27+02:00</time>
      </trkpt>
      <trkpt lat="45.92756" lon="7.09642">
        <ele>1622</ele>
        <time>2021-05-11T14:52:32+02:00</time>
      </trkpt>
      <trkpt lat="45.9288" lon="7.09547">
        <ele>1615</ele>
        <time>2021-05-11T14:52:37+02:00</time>
      </trkpt>
      <trkpt lat="45.93109" lon="7.09771">
        <ele>1609</ele>
        <time>2021-05-11T14:52:42+02:00</time>
      </trkpt>
      <trkpt lat="45.93229" lon="7.09635">
        <ele>1602</ele>
        <time>2021-05-11T14:52:47+02:00</time>
      </trkpt>
      <trkpt lat="45.93353" lon="7.0957">
        <ele>1593</ele>
        <time>2021-05-11T14:52:52+02:00</time>
      </trkpt>
      <trkpt lat="45.93491" lon="7.0941">
        <ele>1592</ele>
        <time>2021-05-11T14:52:57+02:00</time>
      </trkpt>
      <trkpt lat="45.93708" lon="7.09479">
        <ele>1575</ele>
        <time>2021-05-11T14:53:02+02:00</time>
      </trkpt>
      <trkpt lat="45.93777" lon="7.0956">
        <ele>1563</ele>
        <time>2021-05-11T14:53:07+02:00</time>
      </trkpt>
      <trkpt lat="45.93894" lon="7.09556">
        <ele>1561</ele>
        <time>2021-05-11T14:53:12+02:00</time>
      </trkpt>
      <trkpt lat="45.94064" lon="7.09586">
        <ele>1545</ele>
        <time>2021-05-11T14:53:17+02:00</time>
      </trkpt>
      <trkpt lat="45.94138" lon="7.0963">
        <ele>1542</ele>
        <time>2021-05-11T14:53:22+02:00</time>
      </trkpt>
      <trkpt lat="45.94224" lon="7.0958">
        <ele>1540</ele>
        <time>2021-05-11T14:53:27+02:00</time>
      </trkpt>
      <trkpt lat="45.94405" lon="7.09616">
        <ele>1531</ele>
        <time>2021-05-11T14:53:32+02:00</time>
      </trkpt>
      <trkpt lat="45.94563" lon="7.09826">
        <ele>1522</ele>
        <time>2021-05-11T14:53:37+02:00</time>
      </trkpt>
      <trkpt lat="45.94766" lon="7.09977">
        <ele>1500</ele>
        <time>2021-05-11T14:53:42+02:00</time>
      </trkpt>
      <trkpt lat="45.94848" lon="7.09977">
        <ele>1497</ele>
        <time>2021-05-11T14:53:47+02:00</time>
      </trkpt>
      <trkpt lat="45.94852" lon="7.10054">
        <ele>1490</ele>
        <time>2021-05-11T14:53:52+02:00</time>
      </trkpt>
      <trkpt lat="45.94925" lon="7.10148">
        <ele>1482</ele>
        <time>2021-05-11T14:53:57+02:00</time>
      </trkpt>
      <trkpt lat="45.95016" lon="7.10217">
        <ele>1481</ele>
        <time>2021-05-11T14:54:02+02:00</time>
      </trkpt>
      <trkpt lat="45.95255" lon="7.10251">
        <ele>1461</ele>
        <time>2021-05-11T14:54:07+02:00</time>
      </trkpt>
      <trkpt lat="45.95458" lon="7.10346">
        <ele>1441</ele>
        <time>2021-05-11T14:54:12+02:00</time>
      </trkpt>
      <trkpt lat="45.95649" lon="7.10522">
        <ele>1428</ele>
        <time>2021-05-11T14:54:17+02:00</time>
      </trkpt>
      <trkpt lat="45.95825" lon="7.10588">
        <ele>1408</ele>
        <time>2021-05-11T14:54:22+02:00</time>
      </trkpt>
      <trkpt lat="45.95929" lon="7.10736">
        <ele>1403</ele>
        <time>2021-05-11T14:54:27+02:00</time>
      </trkpt>
      <trkpt lat="45.95998" lon="7.10882">
        <ele>1373</ele>
        <time>2021-05-11T14:54:32+02:00</time>
      </trkpt>
      <trkpt lat="45.96377" lon="7.10831">
        <ele>1379</ele>
        <time>2021-05-11T14:54:37+02:00</time>
      </trkpt>
      <trkpt lat="45.96583" lon="7.10818">
        <ele>1387</ele>
        <time>2021-05-11T14:54:42+02:00</time>
      </trkpt>
      <trkpt lat="45.96742" lon="7.10934">
        <ele>1386</ele>
        <time>2021-05-11T14:54:47+02:00</time>
      </trkpt>
      <trkpt lat="45.96809" lon="7.11002">
        <ele>1367</ele>
        <time>2021-05-11T14:54:52+02:00</time>
      </trkpt>
      <trkpt lat="45.96881" lon="7.11054">
        <ele>1343</ele>
        <time>2021-05-11T14:54:57+02:00</time>
      </trkpt>
      <trkpt lat="45.97084" lon="7.11049">
        <ele>1360</ele>
        <time>2021-05-11T14:55:02+02:00</time>
      </trkpt>
      <trkpt lat="45.97246" lon="7.11213">
        <ele>1317</ele>
        <time>2021-05-11T14:55:07+02:00</time>
      </trkpt>
      <trkpt lat="45.9746" lon="7.1123">
        <ele>1327</ele>
        <time>2021-05-11T14:55:12+02:00</time>
      </trkpt>
      <trkpt lat="45.97628" lon="7.11307">
        <ele>1322</ele>
        <time>2021-05-11T14:55:17+02:00</time>
      </trkpt>
      <trkpt lat="45.97797" lon="7.11311">
        <ele>1333</ele>
        <time>2021-05-11T14:55:22+02:00</time>
      </trkpt>
      <trkpt lat="45.98144" lon="7.112">
        <ele>1284</ele>
        <time>2021-05-11T14:55:27+02:00</time>
      </trkpt>
      <trkpt lat="45.98181" lon="7.11247">
        <ele>1268</ele>
        <time>2021-05-11T14:55:32+02:00</time>
      </trkpt>
      <trkpt lat="45.98154" lon="7.11492">
        <ele>1253</ele>
        <time>2021-05-11T14:55:37+02:00</time>
      </trkpt>
      <trkpt lat="45.98143" lon="7.11596">
        <ele>1243</ele>
        <time>2021-05-11T14:55:42+02:00</time>
      </trkpt>
      <trkpt lat="45.98256" lon="7.11854">
        <ele>1224</ele>
        <time>2021-05-11T14:55:47+02:00</time>
      </trkpt>
      <trkpt lat="45.98476" lon="7.12178">
        <ele>1192</ele>
        <time>2021-05-11T14:55:52+02:00</time>
      </trkpt>
      <trkpt lat="45.98676" lon="7.12191">
        <ele>1184</ele>
        <time>2021-05-11T14:55:57+02:00</time>
      </trkpt>
      <trkpt lat="45.98845" lon="7.12384">
        <ele>1164</ele>
        <time>2021-05-11T14:56:02+02:00</time>
      </trkpt>
      <trkpt lat="45.98933" lon="7.12539">
        <ele>1148</ele>
        <time>2021-05-11T14:56:07+02:00</time>
      </trkpt>
      <trkpt lat="45.98878" lon="7.12618">
        <ele>1156</ele>
        <time>2021-05-11T14:56:12+02:00</time>
      </trkpt>
      <trkpt lat="45.98977" lon="7.12672">
        <ele>1152</ele>
        <time>2021-05-11T14:56:17+02:00</time>
      </trkpt>
      <trkpt lat="45.99288" lon="7.1268">
        <ele>1128</ele>
        <time>2021-05-11T14:56:22+02:00</time>
      </trkpt>
      <trkpt lat="45.99577" lon="7.12818">
        <ele>1115</ele>
        <time>2021-05-11T14:56:27+02:00</time>
      </trkpt>
      <trkpt lat="45.9989" lon="7.12818">
        <ele>1108</ele>
        <time>2021-05-11T14:56:32+02:00</time>
      </trkpt>
      <trkpt lat="46.00131" lon="7.12753">
        <ele>1079</ele>
        <time>2021-05-11T14:56:37+02:00</time>
      </trkpt>
      <trkpt lat="46.00259" lon="7.12607">
        <ele>1056</ele>
        <time>2021-05-11T14:56:42+02:00</time>
      </trkpt>
      <trkpt lat="46.00468" lon="7.12494">
        <ele>1045</ele>
        <time>2021-05-11T14:56:47+02:00</time>
      </trkpt>
      <trkpt lat="46.00608" lon="7.12321">
        <ele>1084</ele>
        <time>2021-05-11T14:56:52+02:00</time>
      </trkpt>
      <trkpt lat="46.00717" lon="7.12333">
        <ele>1090</ele>
        <time>2021-05-11T14:56:57+02:00</time>
      </trkpt>
      <trkpt lat="46.00897" lon="7.12328">
        <ele>1119</ele>
        <time>2021-05-11T14:57:02+02:00</time>
      </trkpt>
      <trkpt lat="46.01005" lon="7.12088">
        <ele>1179</ele>
        <time>2021-05-11T14:57:07+02:00</time>
      </trkpt>
      <trkpt lat="46.011" lon="7.11968">
        <ele>1190</ele>
        <time>2021-05-11T14:57:12+02:00</time>
      </trkpt>
      <trkpt lat="46.0113" lon="7.11801">
        <ele>1237</ele>
        <time>2021-05-11T14:57:17+02:00</time>
      </trkpt>
      <trkpt lat="46.01175" lon="7.11946">
        <ele>1218</ele>
        <time>2021-05-11T14:57:22+02:00</time>
      </trkpt>
      <trkpt lat="46.01237" lon="7.11966">
        <ele>1231</ele>
        <time>2021-05-11T14:57:27+02:00</time>
      </trkpt>
      <trkpt lat="46.01374" lon="7.12092">
        <ele>1247</ele>
        <time>2021-05-11T14:57:32+02:00</time>
      </trkpt>
      <trkpt lat="46.01407" lon="7.11966">
        <ele>1297</ele>
        <time>2021-05-11T14:57:37+02:00</time>
      </trkpt>
      <trkpt lat="46.01602" lon="7.11954">
        <ele>1313</ele>
        <time>2021-05-11T14:57:42+02:00</time>
      </trkpt>
      <trkpt lat="46.01744" lon="7.11861">
        <ele>1327</ele>
        <time>2021-05-11T14:57:47+02:00</time>
      </trkpt>
      <trkpt lat="46.01842" lon="7.12026">
        <ele>1324</ele>
        <time>2021-05-11T14:57:52+02:00</time>
      </trkpt>
      <trkpt lat="46.01979" lon="7.12041">
        <ele>1335</ele>
        <time>2021-05-11T14:57:57+02:00</time>
      </trkpt>
      <trkpt lat="46.02079" lon="7.1203">
        <ele>1335</ele>
        <time>2021-05-11T14:58:02+02:00</time>
      </trkpt>
      <trkpt lat="46.02212" lon="7.12119">
        <ele>1350</ele>
        <time>2021-05-11T14:58:07+02:00</time>
      </trkpt>
      <trkpt lat="46.02145" lon="7.11953">
        <ele>1378</ele>
        <time>2021-05-11T14:58:12+02:00</time>
      </trkpt>
      <trkpt lat="46.02233" lon="7.12025">
        <ele>1381</ele>
        <time>2021-05-11T14:58:17+02:00</time>
      </trkpt>
      <trkpt lat="46.02373" lon="7.12056">
        <ele>1416</ele>
        <time>2021-05-11T14:58:22+02:00</time>
      </trkpt>
      <trkpt lat="46.02471" lon="7.12105">
        <ele>1429</ele>
        <time>2021-05-11T14:58:27+02:00</time>
      </trkpt>
      <trkpt lat="46.02566" lon="7.12045">
        <ele>1441</ele>
        <time>2021-05-11T14:58:32+02:00</time>
      </trkpt>
      <trkpt lat="46.02587" lon="7.11942">
        <ele>1445</ele>
        <time>2021-05-11T14:58:37+02:00</time>
      </trkpt>
      <trkpt lat="46.02636" lon="7.12178">
        <ele>1468</ele>
        <time>2021-05-11T14:58:42+02:00</time>
      </trkpt>
      <trkpt lat="46.02694" lon="7.12062">
        <ele>1466</ele>
        <time>2021-05-11T14:58:47+02:00</time>
      </trkpt>
      <trkpt lat="46.02821" lon="7.12011">
        <ele>1477</ele>
        <time>2021-05-11T14:58:52+02:00</time>
      </trkpt>
      <trkpt lat="46.02828" lon="7.11848">
        <ele>1467</ele>
        <time>2021-05-11T14:58:57+02:00</time>
      </trkpt>
      <trkpt lat="46.02983" lon="7.1171">
        <ele>1471</ele>
        <time>2021-05-11T14:59:02+02:00</time>
      </trkpt>
      <trkpt lat="46.03076" lon="7.11504">
        <ele>1471</ele>
        <time>2021-05-11T14:59:07+02:00</time>
      </trkpt>
    </trkseg>
  </trk>
</gpx>